Time;durP1;ratioP1;P1;durP2;ratioP2;P2;SDS_P1;SDS_P2;PMS_P1;PMS_P2;Temp;Humidity;BMP_temperature;BMP_pressure;BME280_temperature;BME280_humidity;BME280_pressure;Samples;Min_cycle;Max_cycle;Signal;HPM_P1;HPM_P2
2021/06/06 00:01:32;;;;;;;157.52;74.80;;;;;;;16.91;100.00;101817.88;6249008;28;20053;-78
2021/06/06 00:04:33;;;;;;;149.73;74.32;;;;;;;16.83;100.00;101829.94;6249019;28;20053;-75
2021/06/06 00:07:34;;;;;;;144.02;73.45;;;;;;;16.90;100.00;101813.53;6248732;28;20049;-75
2021/06/06 00:10:36;;;;;;;146.13;70.60;;;;;;;16.84;100.00;101821.84;6248570;28;20116;-75
2021/06/06 00:13:39;;;;;;;137.00;67.05;;;;;;;16.85;100.00;101823.59;6248584;28;20493;-78
2021/06/06 00:16:43;;;;;;;138.00;68.30;;;;;;;16.89;100.00;101827.72;6248807;28;20075;-75
2021/06/06 00:19:44;;;;;;;123.70;65.88;;;;;;;17.12;100.00;101828.09;6248470;28;20045;-76
2021/06/06 00:22:45;;;;;;;132.32;67.55;;;;;;;16.89;100.00;101826.88;6248542;28;20053;-75
2021/06/06 00:25:47;;;;;;;124.95;65.03;;;;;;;17.01;100.00;101828.78;6248401;28;20056;-76
2021/06/06 00:28:48;;;;;;;122.78;62.55;;;;;;;16.86;100.00;101821.78;6248535;28;20056;-76
2021/06/06 00:31:49;;;;;;;116.40;61.00;;;;;;;16.77;100.00;101827.66;6247947;28;20046;-74
2021/06/06 00:34:50;;;;;;;116.22;59.65;;;;;;;16.73;100.00;101819.03;6247889;28;20106;-75
2021/06/06 00:37:52;;;;;;;123.45;60.75;;;;;;;16.68;100.00;101824.59;6248225;28;20053;-75
2021/06/06 00:40:56;;;;;;;113.43;58.13;;;;;;;16.69;100.00;101818.31;6248134;28;20103;-75
2021/06/06 00:43:58;;;;;;;112.88;58.13;;;;;;;16.65;100.00;101827.44;6247789;28;20045;-77
2021/06/06 00:46:59;;;;;;;110.40;58.05;;;;;;;16.63;100.00;101832.00;6248115;28;20049;-77
2021/06/06 00:50:03;;;;;;;98.95;53.60;;;;;;;16.75;100.00;101822.44;6247620;28;20554;-75
2021/06/06 00:53:07;;;;;;;98.63;52.30;;;;;;;16.59;100.00;101821.66;6247763;28;20492;-77
2021/06/06 00:56:13;;;;;;;97.53;52.50;;;;;;;16.58;100.00;101826.13;6248263;28;20056;-77
2021/06/06 00:59:18;;;;;;;98.57;54.92;;;;;;;16.57;100.00;101829.69;6247587;28;20057;-75
2021/06/06 01:02:19;;;;;;;102.60;55.20;;;;;;;16.53;100.00;101832.63;6247856;28;20042;-78
2021/06/06 01:05:28;;;;;;;115.78;57.63;;;;;;;16.53;100.00;101833.47;6247310;28;20059;-77
2021/06/06 01:08:32;;;;;;;;;;;;;;;16.63;100.00;101831.13;6248196;28;20057;-75
2021/06/06 01:11:41;;;;;;;100.78;53.28;;;;;;;16.53;100.00;101828.16;6247602;28;19928;-75
2021/06/06 01:14:46;;;;;;;91.15;49.15;;;;;;;16.53;100.00;101830.81;6247726;28;20045;-77
2021/06/06 01:17:52;;;;;;;92.20;51.95;;;;;;;16.56;100.00;101828.00;6247311;28;20046;-76
2021/06/06 01:21:08;;;;;;;96.80;51.80;;;;;;;16.54;100.00;101823.75;6247654;28;20455;-78
2021/06/06 01:24:15;;;;;;;95.63;53.15;;;;;;;16.56;100.00;101825.34;6247198;28;20053;-77
2021/06/06 01:27:20;;;;;;;98.25;54.65;;;;;;;16.62;100.00;101827.63;6247866;28;20056;-75
2021/06/06 01:30:24;;;;;;;88.63;47.17;;;;;;;16.67;100.00;101824.69;6247061;28;20049;-76
2021/06/06 01:33:28;;;;;;;87.45;50.65;;;;;;;16.56;100.00;101830.66;6246966;28;20049;-75
2021/06/06 01:36:33;;;;;;;94.95;53.50;;;;;;;16.41;100.00;101826.28;6247048;28;20045;-75
2021/06/06 01:39:39;;;;;;;83.80;49.83;;;;;;;16.49;100.00;101826.69;6247049;28;20490;-75
2021/06/06 01:42:43;;;;;;;98.45;53.80;;;;;;;16.38;100.00;101826.47;6246433;28;20164;-75
2021/06/06 01:45:48;;;;;;;103.72;54.97;;;;;;;16.43;100.00;101829.69;6246650;28;20111;-76
2021/06/06 01:48:50;;;;;;;86.10;49.47;;;;;;;16.51;100.00;101819.47;6246629;28;20049;-74
2021/06/06 01:51:54;;;;;;;86.30;47.88;;;;;;;16.59;100.00;101824.31;6246646;28;20068;-75
2021/06/06 01:54:58;;;;;;;79.80;47.90;;;;;;;16.56;100.00;101814.72;6246648;28;20057;-75
2021/06/06 01:58:03;;;;;;;79.97;49.13;;;;;;;16.42;100.00;101825.31;6246539;28;20390;-76
2021/06/06 02:01:09;;;;;;;90.05;51.08;;;;;;;16.38;100.00;101815.84;6246658;28;20420;-75
2021/06/06 02:04:10;;;;;;;91.25;53.20;;;;;;;16.28;100.00;101822.66;6246296;28;20060;-75
2021/06/06 02:07:16;;;;;;;89.78;53.30;;;;;;;16.34;100.00;101816.97;6246804;28;20051;-75
2021/06/06 02:10:25;;;;;;;88.75;51.38;;;;;;;16.18;100.00;101817.06;6246705;28;20049;-76
2021/06/06 02:13:33;;;;;;;102.60;56.15;;;;;;;16.13;100.00;101814.69;6246667;28;20052;-76
2021/06/06 02:16:39;;;;;;;106.78;55.63;;;;;;;16.13;100.00;101816.47;6246465;28;20421;-76
2021/06/06 02:19:42;;;;;;;99.45;55.45;;;;;;;16.07;100.00;101809.72;6246407;28;20096;-76
2021/06/06 02:22:43;;;;;;;102.15;57.97;;;;;;;16.06;100.00;101815.97;6246405;28;20095;-76
2021/06/06 02:25:45;;;;;;;109.05;57.42;;;;;;;16.08;100.00;101811.44;6246379;28;20541;-75
2021/06/06 02:28:52;;;;;;;103.47;55.08;;;;;;;16.00;100.00;101812.84;6246362;28;20049;-75
2021/06/06 02:32:00;;;;;;;101.18;55.33;;;;;;;16.07;100.00;101817.69;6246201;28;20062;-76
2021/06/06 02:35:08;;;;;;;97.45;54.08;;;;;;;16.16;100.00;101817.13;6246136;28;20072;-76
2021/06/06 02:38:14;;;;;;;97.47;53.80;;;;;;;16.08;100.00;101814.09;6246516;28;20060;-76
2021/06/06 02:41:20;;;;;;;100.05;54.20;;;;;;;16.17;100.00;101816.22;6246209;28;20440;-76
2021/06/06 02:44:26;;;;;;;98.35;54.53;;;;;;;15.97;100.00;101813.88;6246422;28;20058;-75
2021/06/06 02:47:30;;;;;;;109.32;56.20;;;;;;;16.04;100.00;101823.19;6248342;28;20052;-74
2021/06/06 02:50:34;;;;;;;100.28;54.78;;;;;;;16.04;100.00;101817.88;6248043;28;20045;-75
2021/06/06 02:53:40;;;;;;;100.93;54.22;;;;;;;16.17;100.00;101816.22;6246763;28;20049;-77
2021/06/06 02:56:48;;;;;;;105.47;55.08;;;;;;;16.04;100.00;101815.22;6251278;28;20516;-75
2021/06/06 02:59:52;;;;;;;109.20;56.53;;;;;;;15.90;100.00;101815.19;6250882;28;20053;-74
2021/06/06 03:02:58;;;;;;;114.93;57.70;;;;;;;15.89;100.00;101824.06;6250248;28;20050;-75
2021/06/06 03:06:03;;;;;;;110.97;55.55;;;;;;;15.97;100.00;101817.38;6244869;28;20056;-75
2021/06/06 03:09:05;;;;;;;112.78;56.17;;;;;;;16.01;100.00;101820.69;6250079;28;20120;-75
2021/06/06 03:12:11;;;;;;;109.95;55.28;;;;;;;15.93;100.00;101820.28;6250219;28;20500;-75
2021/06/06 03:15:14;;;;;;;110.20;56.47;;;;;;;15.88;100.00;101831.16;6249887;28;20049;-75
2021/06/06 03:18:16;;;;;;;111.82;56.33;;;;;;;15.85;100.00;101835.78;6250010;28;20050;-75
2021/06/06 03:21:23;;;;;;;108.07;54.90;;;;;;;15.87;100.00;101836.56;6250093;28;20049;-75
2021/06/06 03:24:30;;;;;;;117.28;57.03;;;;;;;15.82;100.00;101835.97;6249894;28;20122;-76
2021/06/06 03:27:37;;;;;;;120.68;58.00;;;;;;;15.81;100.00;101844.88;6249862;28;20071;-75
2021/06/06 03:30:41;;;;;;;111.47;54.22;;;;;;;15.88;100.00;101847.06;6249638;28;20041;-74
2021/06/06 03:33:47;;;;;;;112.25;56.78;;;;;;;15.84;100.00;101847.34;6249653;28;20056;-75
2021/06/06 03:36:48;;;;;;;123.53;58.35;;;;;;;15.80;100.00;101853.75;6249958;28;20100;-77
2021/06/06 03:39:49;;;;;;;114.95;55.75;;;;;;;15.87;100.00;101849.81;6249404;28;20049;-74
2021/06/06 03:42:51;;;;;;;114.68;56.00;;;;;;;15.82;100.00;101849.22;6249390;28;20095;-74
2021/06/06 03:45:52;;;;;;;117.78;53.35;;;;;;;15.80;100.00;101856.41;6248355;28;20421;-75
2021/06/06 03:48:54;;;;;;;108.10;50.78;;;;;;;15.92;100.00;101848.59;6247949;28;20050;-75
2021/06/06 03:51:55;;;;;;;108.80;49.95;;;;;;;15.79;100.00;101850.25;6248687;28;20045;-75
2021/06/06 03:54:56;;;;;;;92.85;47.65;;;;;;;15.79;100.00;101852.91;6248695;28;20053;-75
2021/06/06 03:57:58;;;;;;;88.22;44.55;;;;;;;15.92;100.00;101864.50;6249215;28;20558;-75
2021/06/06 04:00:59;;;;;;;83.38;42.97;;;;;;;15.77;100.00;101859.25;6248856;28;20045;-75
2021/06/06 04:04:01;;;;;;;92.20;44.40;;;;;;;15.77;100.00;101857.44;6248575;28;20489;-75
2021/06/06 04:07:03;;;;;;;81.22;43.30;;;;;;;15.67;100.00;101864.22;6248432;28;20103;-74
2021/06/06 04:10:05;;;;;;;81.05;41.75;;;;;;;15.65;100.00;101859.00;6248922;28;20049;-75
2021/06/06 04:13:08;;;;;;;72.03;38.33;;;;;;;15.73;100.00;101862.06;6249093;28;20485;-75
2021/06/06 04:16:09;;;;;;;75.82;38.60;;;;;;;15.61;100.00;101868.03;6248650;28;20118;-75
2021/06/06 04:19:10;;;;;;;59.80;33.50;;;;;;;15.87;100.00;101863.94;6248613;28;20041;-75
2021/06/06 04:22:11;;;;;;;56.67;29.25;;;;;;;15.69;100.00;101862.34;6248799;28;20075;-75
2021/06/06 04:25:14;;;;;;;49.45;27.48;;;;;;;15.68;100.00;101861.47;6248408;28;20071;-75
2021/06/06 04:28:16;;;;;;;40.75;26.00;;;;;;;15.86;100.00;101867.53;6248777;28;20045;-75
2021/06/06 04:31:18;;;;;;;44.63;25.60;;;;;;;15.66;100.00;101867.78;6248589;28;20574;-75
2021/06/06 04:34:19;;;;;;;46.50;27.42;;;;;;;15.59;100.00;101874.38;6248323;28;20053;-75
2021/06/06 04:37:20;;;;;;;46.40;27.13;;;;;;;15.57;100.00;101865.63;6248317;28;20053;-75
2021/06/06 04:40:21;;;;;;;44.22;26.65;;;;;;;15.69;100.00;101862.34;6248478;28;20053;-75
2021/06/06 04:43:24;;;;;;;44.47;27.15;;;;;;;15.57;100.00;101869.13;6248111;28;20053;-74
2021/06/06 04:46:24;;;;;;;45.40;27.92;;;;;;;15.58;100.00;101870.88;6248372;28;20057;-75
2021/06/06 04:49:25;;;;;;;43.90;26.80;;;;;;;15.55;100.00;101863.06;6262520;22;20046;-77
2021/06/06 04:52:35;;;;;;;42.40;26.83;;;;;;;15.76;100.00;101862.81;6225672;28;20050;-77
2021/06/06 04:55:36;;;;;;;40.45;24.42;;;;;;;15.72;100.00;101867.47;6219769;28;20046;-77
2021/06/06 04:58:39;;;;;;;37.22;24.27;;;;;;;15.66;100.00;101863.34;6223833;28;20050;-77
2021/06/06 05:01:39;;;;;;;39.85;24.45;;;;;;;15.75;100.00;101871.72;6223379;28;20239;-77
2021/06/06 05:04:41;;;;;;;39.63;25.48;;;;;;;15.71;100.00;101871.03;6224107;28;20053;-77
2021/06/06 05:07:43;;;;;;;40.90;26.67;;;;;;;15.61;100.00;101877.78;6223270;28;20732;-77
2021/06/06 05:10:45;;;;;;;43.80;26.45;;;;;;;15.52;100.00;101878.28;6225646;28;20061;-77
2021/06/06 05:13:47;;;;;;;41.60;26.25;;;;;;;15.56;100.00;101878.03;6228544;28;20060;-77
2021/06/06 05:16:48;;;;;;;46.00;27.55;;;;;;;15.52;100.00;101883.59;6227463;28;20053;-78
2021/06/06 05:19:49;;;;;;;41.03;26.85;;;;;;;15.56;100.00;101888.63;6225168;28;20107;-77
2021/06/06 05:22:50;;;;;;;42.72;26.70;;;;;;;15.51;100.00;101887.19;6225610;28;20053;-77
2021/06/06 05:25:52;;;;;;;39.40;25.77;;;;;;;15.66;100.00;101881.91;6225774;28;20490;-77
2021/06/06 05:28:54;;;;;;;44.42;26.50;;;;;;;15.82;100.00;101883.69;6224829;28;20060;-77
2021/06/06 05:31:56;;;;;;;43.05;27.25;;;;;;;15.58;100.00;101881.47;6223472;28;20046;-77
2021/06/06 05:34:57;;;;;;;43.78;26.85;;;;;;;15.70;100.00;101880.78;6224155;28;20108;-77
2021/06/06 05:37:58;;;;;;;42.28;26.27;;;;;;;15.86;100.00;101879.94;6223463;28;20398;-77
2021/06/06 05:41:00;;;;;;;44.90;26.77;;;;;;;15.63;100.00;101879.41;6223911;28;20049;-78
2021/06/06 05:44:04;;;;;;;46.17;28.00;;;;;;;15.61;100.00;101873.31;6223756;28;20053;-77
2021/06/06 05:47:06;;;;;;;45.90;28.23;;;;;;;15.49;100.00;101887.28;6220274;28;20148;-77
2021/06/06 05:50:09;;;;;;;44.80;27.98;;;;;;;15.55;100.00;101888.72;6224618;28;20100;-77
2021/06/06 05:53:10;;;;;;;42.85;27.70;;;;;;;15.56;100.00;101890.44;6222798;28;20046;-77
2021/06/06 05:56:12;;;;;;;47.47;27.38;;;;;;;15.52;100.00;101894.19;6222494;28;20054;-77
2021/06/06 05:59:14;;;;;;;46.42;26.95;;;;;;;15.50;100.00;101894.28;6225296;28;20493;-78
2021/06/06 06:02:15;;;;;;;47.63;27.02;;;;;;;15.71;100.00;101895.78;6224664;28;20100;-77
2021/06/06 06:05:17;;;;;;;48.63;26.02;;;;;;;15.71;100.00;101901.06;6226992;28;20054;-77
2021/06/06 06:08:21;;;;;;;48.25;27.17;;;;;;;15.65;100.00;101901.41;6227199;28;20054;-77
2021/06/06 06:11:23;;;;;;;50.22;29.85;;;;;;;15.67;100.00;101898.69;6226878;28;20469;-77
2021/06/06 06:14:25;;;;;;;56.55;32.10;;;;;;;15.85;100.00;101900.28;6227226;28;20062;-77
2021/06/06 06:17:26;;;;;;;56.55;32.70;;;;;;;15.73;100.00;101895.69;6224389;28;20050;-77
2021/06/06 06:20:27;;;;;;;54.05;32.25;;;;;;;15.73;100.00;101903.63;6224479;28;20052;-77
2021/06/06 06:23:28;;;;;;;49.05;29.83;;;;;;;15.84;100.00;101906.50;6224511;28;20509;-79
2021/06/06 06:26:30;;;;;;;50.97;30.58;;;;;;;15.89;100.00;101903.59;6223687;28;20046;-77
2021/06/06 06:29:32;;;;;;;48.28;30.00;;;;;;;15.78;100.00;101903.38;6224190;28;20084;-77
2021/06/06 06:32:33;;;;;;;51.55;31.08;;;;;;;15.86;100.00;101895.84;6228286;28;20041;-77
2021/06/06 06:35:35;;;;;;;49.38;30.67;;;;;;;15.78;100.00;101900.72;6228211;28;20130;-77
2021/06/06 06:38:36;;;;;;;50.53;30.58;;;;;;;15.87;100.00;101900.19;6227879;28;20056;-77
2021/06/06 06:41:37;;;;;;;52.13;31.05;;;;;;;15.81;100.00;101905.84;6227741;28;20042;-77
2021/06/06 06:44:39;;;;;;;55.67;33.47;;;;;;;15.68;100.00;101903.88;6226335;28;20092;-77
2021/06/06 06:47:40;;;;;;;56.88;33.22;;;;;;;15.67;100.00;101901.34;6228835;28;20482;-77
2021/06/06 06:50:42;;;;;;;59.22;32.47;;;;;;;15.64;100.00;101899.69;6225076;28;20053;-77
2021/06/06 06:53:45;;;;;;;54.65;31.08;;;;;;;15.85;100.00;101910.88;6224528;28;20091;-77
2021/06/06 06:56:47;;;;;;;55.38;29.35;;;;;;;15.82;100.00;101904.91;6222436;28;20417;-77
2021/06/06 06:59:49;;;;;;;53.00;28.70;;;;;;;15.89;100.00;101904.44;6225556;28;20080;-77
2021/06/06 07:02:50;;;;;;;53.20;28.42;;;;;;;15.70;100.00;101915.25;6226445;28;20042;-77
2021/06/06 07:05:51;;;;;;;54.50;27.75;;;;;;;15.72;100.00;101913.38;6226322;28;20127;-77
2021/06/06 07:08:52;;;;;;;50.53;30.48;;;;;;;15.73;100.00;101925.69;6226305;28;20045;-76
2021/06/06 07:11:56;;;;;;;49.33;28.17;;;;;;;15.70;100.00;101920.53;6226747;28;20120;-77
2021/06/06 07:14:58;;;;;;;50.05;28.35;;;;;;;15.91;100.00;101930.88;6226130;28;20060;-77
2021/06/06 07:17:59;;;;;;;49.60;27.70;;;;;;;15.67;100.00;101926.03;6225881;28;20053;-77
2021/06/06 07:21:04;;;;;;;48.50;27.35;;;;;;;15.68;100.00;101929.53;6227566;28;20050;-77
2021/06/06 07:24:06;;;;;;;49.03;26.30;;;;;;;15.67;100.00;101926.03;6226772;28;20104;-76
2021/06/06 07:27:07;;;;;;;44.85;24.92;;;;;;;15.68;100.00;101925.09;6225824;28;20444;-77
2021/06/06 07:30:13;;;;;;;42.25;24.58;;;;;;;15.71;100.00;101927.56;6225631;28;20517;-77
2021/06/06 07:33:16;;;;;;;45.85;24.83;;;;;;;15.86;100.00;101932.94;6225738;28;20460;-77
2021/06/06 07:36:19;;;;;;;43.45;23.27;;;;;;;15.80;100.00;101931.47;6226505;28;20050;-77
2021/06/06 07:39:20;;;;;;;43.30;25.58;;;;;;;15.78;100.00;101932.53;6224961;28;20547;-77
2021/06/06 07:42:21;;;;;;;49.28;26.52;;;;;;;15.73;100.00;101925.69;6224425;28;20046;-77
2021/06/06 07:45:24;;;;;;;45.00;25.65;;;;;;;15.68;100.00;101937.47;6225907;28;20464;-80
2021/06/06 07:48:25;;;;;;;41.95;26.23;;;;;;;15.66;100.00;101934.91;6243753;22;20054;-75
2021/06/06 07:51:26;;;;;;;47.17;26.33;;;;;;;15.61;100.00;101934.28;6224791;28;20056;-76
2021/06/06 07:54:28;;;;;;;51.08;27.17;;;;;;;15.59;100.00;101933.50;6222297;28;20425;-76
2021/06/06 07:57:29;;;;;;;43.58;25.48;;;;;;;15.57;100.00;101935.38;6224047;28;20096;-75
2021/06/06 08:00:34;;;;;;;50.80;27.90;;;;;;;15.47;100.00;101929.72;6224162;28;20506;-75
2021/06/06 08:03:35;;;;;;;44.50;26.13;;;;;;;15.56;100.00;101920.44;6223144;28;20045;-76
2021/06/06 08:06:35;;;;;;;48.53;26.98;;;;;;;15.55;100.00;101921.38;6223999;28;20516;-76
2021/06/06 08:09:37;;;;;;;51.45;27.83;;;;;;;15.41;100.00;101924.78;6223817;28;20062;-76
2021/06/06 08:12:38;;;;;;;48.67;26.85;;;;;;;15.60;100.00;101932.56;6222175;28;20404;-76
2021/06/06 08:15:40;;;;;;;46.70;26.85;;;;;;;15.48;100.00;101923.50;6223146;28;20045;-75
2021/06/06 08:18:44;;;;;;;47.65;26.50;;;;;;;15.46;100.00;101928.03;6224053;28;20069;-76
2021/06/06 08:21:47;;;;;;;49.13;27.98;;;;;;;15.45;100.00;101917.53;6223910;28;20104;-76
2021/06/06 08:24:48;;;;;;;54.60;29.98;;;;;;;15.55;100.00;101926.66;6223456;28;20515;-75
2021/06/06 08:27:50;;;;;;;49.40;27.30;;;;;;;15.55;100.00;101920.53;6223526;28;20120;-76
2021/06/06 08:30:55;;;;;;;40.08;25.10;;;;;;;15.56;100.00;101916.94;6224125;28;20061;-76
2021/06/06 08:33:56;;;;;;;46.22;25.13;;;;;;;15.58;100.00;101923.88;6223341;28;20053;-75
2021/06/06 08:36:58;;;;;;;45.17;25.15;;;;;;;15.61;100.00;101920.16;6223728;28;20050;-75
2021/06/06 08:39:58;;;;;;;43.92;24.50;;;;;;;15.57;100.00;101918.63;6247565;22;20062;-78
2021/06/06 08:43:02;;;;;;;37.17;23.85;;;;;;;15.70;100.00;101917.88;6222533;28;20053;-78
2021/06/06 08:46:04;;;;;;;34.45;21.83;;;;;;;15.88;100.00;101920.44;6223095;28;20061;-79
2021/06/06 08:49:05;;;;;;;38.28;21.33;;;;;;;16.19;100.00;101919.53;6221721;28;20760;-77
2021/06/06 08:52:14;;;;;;;30.90;18.63;;;;;;;16.18;100.00;101918.69;6221450;28;20046;-77
2021/06/06 08:55:30;;;;;;;35.03;18.98;;;;;;;16.36;100.00;101923.88;6218571;28;20122;-77
2021/06/06 08:58:40;;;;;;;26.83;17.48;;;;;;;16.25;100.00;101924.47;6220582;28;20425;-76
2021/06/06 09:01:49;;;;;;;29.80;18.42;;;;;;;16.06;100.00;101929.16;6222890;28;20053;-77
2021/06/06 09:04:51;;;;;;;36.65;24.70;;;;;;;16.02;100.00;101931.13;6200517;28;20070;-79
2021/06/06 09:07:54;;;;;;;35.15;24.05;;;;;;;16.01;100.00;101931.22;6202159;28;20509;-78
2021/06/06 09:10:59;;;;;;;33.20;21.73;;;;;;;16.06;100.00;101939.75;6204893;28;20452;-77
2021/06/06 09:14:00;;;;;;;33.70;21.77;;;;;;;16.00;100.00;101943.63;6223882;28;20054;-77
2021/06/06 09:17:07;;;;;;;34.22;21.08;;;;;;;15.96;100.00;101950.88;6222353;28;20046;-77
2021/06/06 09:20:23;;;;;;;31.77;19.83;;;;;;;16.03;100.00;101946.06;6219093;28;20077;-78
2021/06/06 09:23:27;;;;;;;25.38;16.58;;;;;;;16.12;100.00;101942.03;6221490;28;20054;-77
2021/06/06 09:26:28;;;;;;;21.55;14.50;;;;;;;16.24;100.00;101950.16;6219563;28;20050;-77
2021/06/06 09:29:29;;;;;;;19.15;13.32;;;;;;;16.14;100.00;101949.00;6222615;28;20096;-77
2021/06/06 09:32:33;;;;;;;19.30;13.73;;;;;;;16.22;100.00;101945.91;6222058;28;20061;-77
2021/06/06 09:35:37;;;;;;;21.20;14.02;;;;;;;16.17;100.00;101954.13;6222156;28;20050;-77
2021/06/06 09:38:40;;;;;;;22.40;14.48;;;;;;;16.33;100.00;101962.03;6241254;23;20049;-73
2021/06/06 09:41:44;;;;;;;20.77;13.77;;;;;;;16.30;100.00;101964.84;6212783;28;20046;-73
2021/06/06 09:44:45;;;;;;;23.15;15.05;;;;;;;16.18;100.00;101971.75;6219926;28;20103;-72
2021/06/06 09:48:06;;;;;;;24.27;15.68;;;;;;;15.92;100.00;101964.41;6220439;28;20061;-74
2021/06/06 09:51:14;;;;;;;25.50;17.30;;;;;;;16.08;100.00;101961.72;6237476;23;20045;-74
2021/06/06 09:54:17;;;;;;;23.92;16.00;;;;;;;15.86;100.00;101964.75;6221372;28;20050;-75
2021/06/06 09:57:28;;;;;;;24.17;16.33;;;;;;;15.91;100.00;101965.34;6223765;28;20425;-75
2021/06/06 10:00:37;;;;;;;23.85;16.02;;;;;;;15.90;100.00;101972.47;6223778;28;20046;-75
2021/06/06 10:03:50;;;;;;;25.17;15.52;;;;;;;16.12;100.00;101972.06;6225530;28;20054;-75
2021/06/06 10:06:52;;;;;;;23.02;15.98;;;;;;;16.08;100.00;101973.22;6254628;28;20053;-75
2021/06/06 10:09:55;;;;;;;25.73;16.80;;;;;;;16.08;100.00;101978.53;6255063;28;20052;-75
2021/06/06 10:12:58;;;;;;;27.67;16.60;;;;;;;16.10;100.00;101975.78;6253550;28;20046;-75
2021/06/06 10:16:02;;;;;;;25.63;16.38;;;;;;;16.14;100.00;101975.50;6253448;28;20427;-76
2021/06/06 10:19:11;;;;;;;25.75;15.23;;;;;;;16.04;100.00;101976.13;6253420;28;20049;-76
2021/06/06 10:22:16;;;;;;;26.42;16.27;;;;;;;16.12;100.00;101981.81;6240893;28;20531;-74
2021/06/06 10:25:21;;;;;;;23.58;15.30;;;;;;;16.03;100.00;101977.03;6229057;28;20504;-76
2021/06/06 10:28:25;;;;;;;23.70;14.20;;;;;;;16.01;100.00;101982.44;6230657;28;20222;-76
2021/06/06 10:31:32;;;;;;;21.70;14.23;;;;;;;16.00;100.00;101978.09;6229104;28;20068;-75
2021/06/06 10:34:40;;;;;;;24.10;14.45;;;;;;;16.10;100.00;101984.56;6228933;28;20049;-75
2021/06/06 10:37:42;;;;;;;28.90;15.32;;;;;;;16.10;100.00;101989.03;6224382;28;20068;-75
2021/06/06 10:40:46;;;;;;;26.63;17.75;;;;;;;16.08;100.00;101985.59;6226793;28;20042;-75
2021/06/06 10:43:52;;;;;;;21.33;15.32;;;;;;;16.15;100.00;101990.47;6227245;28;20050;-75
2021/06/06 10:46:58;;;;;;;24.88;15.68;;;;;;;16.08;100.00;101985.59;6224499;28;20426;-76
2021/06/06 10:50:11;;;;;;;27.13;16.58;;;;;;;16.04;100.00;101982.28;6227779;28;20057;-75
2021/06/06 10:53:17;;;;;;;30.00;18.70;;;;;;;16.14;100.00;101987.91;6227327;28;20046;-75
2021/06/06 10:56:33;;;;;;;28.70;17.40;;;;;;;16.11;100.00;101983.63;6224986;28;20049;-76
2021/06/06 10:59:38;;;;;;;28.40;18.15;;;;;;;16.24;100.00;101986.44;6224566;28;20535;-76
2021/06/06 11:02:53;;;;;;;33.28;19.30;;;;;;;16.29;100.00;101987.03;6224302;28;20049;-75
2021/06/06 11:05:58;;;;;;;37.42;22.45;;;;;;;16.01;100.00;101990.41;6224225;28;20045;-75
2021/06/06 11:08:59;;;;;;;48.35;25.90;;;;;;;15.91;100.00;101994.53;6227127;28;20049;-76
2021/06/06 11:12:04;;;;;;;54.22;28.73;;;;;;;15.82;100.00;101987.06;6226003;28;20061;-75
2021/06/06 11:15:20;;;;;;;47.65;24.33;;;;;;;15.92;100.00;101993.56;6224544;28;20049;-76
2021/06/06 11:18:23;;;;;;;50.63;26.42;;;;;;;15.88;100.00;101992.88;6225803;28;20578;-76
2021/06/06 11:21:36;;;;;;;53.72;27.58;;;;;;;15.89;100.00;101991.94;6228225;28;20046;-75
2021/06/06 11:24:47;;;;;;;59.28;28.13;;;;;;;15.85;100.00;101989.53;6227606;28;20069;-76
2021/06/06 11:27:58;;;;;;;53.47;26.30;;;;;;;16.02;100.00;101980.66;6228055;28;20054;-75
2021/06/06 11:31:00;;;;;;;53.83;25.65;;;;;;;16.10;100.00;101976.63;6227808;28;20100;-75
2021/06/06 11:34:03;;;;;;;51.80;26.48;;;;;;;15.95;100.00;101983.66;6226765;28;20535;-75
2021/06/06 11:37:09;;;;;;;59.22;28.67;;;;;;;15.98;100.00;101982.59;6227976;28;20060;-75
2021/06/06 11:40:27;;;;;;;63.53;30.77;;;;;;;16.05;100.00;101988.44;6227784;28;20050;-74
2021/06/06 11:43:32;;;;;;;59.35;30.33;;;;;;;16.03;100.00;101982.34;6227482;28;20104;-75
2021/06/06 11:46:39;;;;;;;62.42;30.17;;;;;;;16.07;100.00;101982.09;6225898;28;20057;-76
2021/06/06 11:49:53;;;;;;;62.28;30.30;;;;;;;16.10;100.00;101979.28;6223881;28;20052;-75
2021/06/06 11:53:02;;;;;;;61.30;29.45;;;;;;;16.13;100.00;101987.06;6223991;28;20112;-75
2021/06/06 11:56:13;;;;;;;58.72;28.70;;;;;;;16.17;100.00;101985.09;6224778;28;20089;-75
2021/06/06 11:59:20;;;;;;;57.08;28.90;;;;;;;16.14;100.00;101979.97;6225006;28;20050;-75
2021/06/06 12:02:23;;;;;;;54.15;29.13;;;;;;;16.08;100.00;101982.94;6225405;28;20046;-75
2021/06/06 12:05:30;;;;;;;56.58;28.50;;;;;;;16.16;100.00;101978.91;6225054;28;20056;-75
2021/06/06 12:08:37;;;;;;;61.33;30.40;;;;;;;16.04;100.00;101986.75;6223098;28;20099;-75
2021/06/06 12:11:38;;;;;;;51.67;28.65;;;;;;;16.19;100.00;101978.75;6223364;28;20057;-76
2021/06/06 12:14:40;;;;;;;56.88;30.10;;;;;;;16.07;100.00;101976.78;6223541;28;20046;-75
2021/06/06 12:17:41;;;;;;;68.32;33.50;;;;;;;15.97;100.00;101981.75;6226648;28;20046;-75
2021/06/06 12:20:51;;;;;;;60.00;31.27;;;;;;;16.09;100.00;101974.06;6227079;28;20051;-76
2021/06/06 12:24:06;;;;;;;60.13;31.30;;;;;;;16.35;100.00;101978.75;6239416;28;20049;-75
2021/06/06 12:27:25;;;;;;;53.58;30.25;;;;;;;16.44;100.00;101970.25;6227949;28;20041;-75
2021/06/06 12:30:28;;;;;;;;;;;;;;;16.45;100.00;101976.41;6230309;28;20050;-75
2021/06/06 12:33:32;;;;;;;56.30;28.25;;;;;;;16.59;100.00;101978.25;6224697;28;20400;-75
2021/06/06 12:36:36;;;;;;;53.40;27.95;;;;;;;16.35;100.00;101980.50;6224329;28;20042;-74
2021/06/06 12:39:43;;;;;;;51.13;28.08;;;;;;;16.37;100.00;101982.13;6224878;28;20042;-75
2021/06/06 12:42:45;;;;;;;50.88;26.33;;;;;;;16.39;100.00;101979.38;6226483;28;20053;-74
2021/06/06 12:45:47;;;;;;;51.25;26.52;;;;;;;16.36;100.00;101984.91;6224860;28;20050;-74
2021/06/06 12:48:59;;;;;;;47.22;25.42;;;;;;;16.38;100.00;101991.81;6226347;28;20045;-74
2021/06/06 12:52:04;;;;;;;45.35;25.80;;;;;;;16.43;100.00;101980.91;6224982;28;20053;-74
2021/06/06 12:55:16;;;;;;;47.92;27.92;;;;;;;16.57;100.00;101982.78;6223088;28;20054;-75
2021/06/06 12:58:27;;;;;;;48.72;27.02;;;;;;;16.51;100.00;101977.84;6222070;28;20141;-75
2021/06/06 13:01:30;;;;;;;53.72;25.42;;;;;;;16.43;100.00;101975.63;6222889;28;20042;-75
2021/06/06 13:04:31;;;;;;;41.88;24.38;;;;;;;16.33;100.00;101988.56;6219821;28;20484;-75
2021/06/06 13:07:35;;;;;;;40.92;23.25;;;;;;;16.28;100.00;101985.31;6224853;28;20057;-75
2021/06/06 13:10:51;;;;;;;42.10;24.15;;;;;;;16.33;100.00;101977.94;6224098;28;20133;-75
2021/06/06 13:13:58;;;;;;;38.33;23.42;;;;;;;16.21;100.00;101982.19;6222578;28;20049;-75
2021/06/06 13:17:02;;;;;;;37.60;21.90;;;;;;;16.31;100.00;101969.25;6223682;28;20129;-76
2021/06/06 13:20:21;;;;;;;35.28;21.17;;;;;;;16.25;100.00;101974.88;6224092;28;20050;-75
2021/06/06 13:23:29;;;;;;;38.60;22.15;;;;;;;16.27;100.00;101969.50;6221730;28;20076;-75
2021/06/06 13:26:37;;;;;;;32.42;18.80;;;;;;;16.31;100.00;101973.69;6220582;28;20058;-75
2021/06/06 13:29:41;;;;;;;37.35;20.95;;;;;;;16.36;100.00;101977.78;6223262;28;20104;-74
2021/06/06 13:32:52;;;;;;;31.27;19.67;;;;;;;16.60;100.00;101971.97;6222784;28;20042;-75
2021/06/06 13:35:53;;;;;;;27.13;18.02;;;;;;;16.49;100.00;101973.47;6219353;28;20049;-75
2021/06/06 13:38:54;;;;;;;31.27;19.27;;;;;;;16.54;100.00;101969.69;6221378;28;20097;-75
2021/06/06 13:41:59;;;;;;;32.83;19.88;;;;;;;16.39;100.00;101972.28;6222042;28;20110;-75
2021/06/06 13:45:00;;;;;;;33.70;21.08;;;;;;;16.31;100.00;101968.38;6221337;28;20049;-75
2021/06/06 13:48:04;;;;;;;32.00;19.20;;;;;;;16.22;100.00;101981.22;6221661;28;20077;-75